sensor_id;sensor_type;location;lat;lon;timestamp;P1;durP1;ratioP1;P2;durP2;ratioP2
7989;SDS011;4040;42.848;23.034;2022-07-23T00:01:53;7.95;;;5.45;;
7989;SDS011;4040;42.848;23.034;2022-07-23T00:07:41;7.57;;;5.25;;
7989;SDS011;4040;42.848;23.034;2022-07-23T00:13:31;5.57;;;4.93;;
7989;SDS011;4040;42.848;23.034;2022-07-23T00:19:20;7.88;;;4.88;;
7989;SDS011;4040;42.848;23.034;2022-07-23T00:25:09;5.68;;;5.10;;
7989;SDS011;4040;42.848;23.034;2022-07-23T00:30:59;7.40;;;5.47;;
7989;SDS011;4040;42.848;23.034;2022-07-23T00:36:47;7.70;;;5.35;;
7989;SDS011;4040;42.848;23.034;2022-07-23T00:42:36;6.45;;;5.10;;
7989;SDS011;4040;42.848;23.034;2022-07-23T00:48:26;5.68;;;4.85;;
7989;SDS011;4040;42.848;23.034;2022-07-23T00:54:15;7.75;;;5.57;;
7989;SDS011;4040;42.848;23.034;2022-07-23T01:00:04;6.85;;;5.70;;
7989;SDS011;4040;42.848;23.034;2022-07-23T01:10:18;5.25;;;4.75;;
7989;SDS011;4040;42.848;23.034;2022-07-23T01:16:19;7.45;;;5.57;;
7989;SDS011;4040;42.848;23.034;2022-07-23T01:22:08;8.40;;;5.63;;
7989;SDS011;4040;42.848;23.034;2022-07-23T01:28:00;8.48;;;5.80;;
7989;SDS011;4040;42.848;23.034;2022-07-23T01:33:48;7.28;;;5.18;;
7989;SDS011;4040;42.848;23.034;2022-07-23T01:39:37;6.43;;;5.07;;
7989;SDS011;4040;42.848;23.034;2022-07-23T01:45:27;8.35;;;5.57;;
7989;SDS011;4040;42.848;23.034;2022-07-23T01:51:16;11.52;;;5.85;;
7989;SDS011;4040;42.848;23.034;2022-07-23T01:57:05;8.93;;;5.95;;
7989;SDS011;4040;42.848;23.034;2022-07-23T02:02:55;8.40;;;5.85;;
7989;SDS011;4040;42.848;23.034;2022-07-23T02:13:07;8.02;;;5.70;;
7989;SDS011;4040;42.848;23.034;2022-07-23T02:18:57;9.30;;;5.65;;
7989;SDS011;4040;42.848;23.034;2022-07-23T02:24:45;8.88;;;5.55;;
7989;SDS011;4040;42.848;23.034;2022-07-23T02:30:34;8.82;;;5.93;;
7989;SDS011;4040;42.848;23.034;2022-07-23T02:36:26;7.88;;;5.65;;
7989;SDS011;4040;42.848;23.034;2022-07-23T02:42:14;10.10;;;6.43;;
7989;SDS011;4040;42.848;23.034;2022-07-23T02:48:03;9.35;;;6.65;;
7989;SDS011;4040;42.848;23.034;2022-07-23T02:53:53;9.15;;;6.53;;
7989;SDS011;4040;42.848;23.034;2022-07-23T02:59:42;7.65;;;6.65;;
7989;SDS011;4040;42.848;23.034;2022-07-23T03:05:31;7.93;;;6.68;;
7989;SDS011;4040;42.848;23.034;2022-07-23T03:15:42;9.45;;;6.70;;
7989;SDS011;4040;42.848;23.034;2022-07-23T03:21:31;7.93;;;6.78;;
7989;SDS011;4040;42.848;23.034;2022-07-23T03:27:20;7.43;;;6.68;;
7989;SDS011;4040;42.848;23.034;2022-07-23T03:33:11;9.63;;;6.57;;
7989;SDS011;4040;42.848;23.034;2022-07-23T03:39:00;9.80;;;6.75;;
7989;SDS011;4040;42.848;23.034;2022-07-23T03:44:48;11.40;;;6.78;;
7989;SDS011;4040;42.848;23.034;2022-07-23T03:50:38;7.55;;;6.38;;
7989;SDS011;4040;42.848;23.034;2022-07-23T03:56:27;12.35;;;6.78;;
7989;SDS011;4040;42.848;23.034;2022-07-23T04:02:16;9.23;;;6.85;;
7989;SDS011;4040;42.848;23.034;2022-07-23T04:08:06;18.48;;;9.02;;
7989;SDS011;4040;42.848;23.034;2022-07-23T04:18:17;8.05;;;7.07;;
7989;SDS011;4040;42.848;23.034;2022-07-23T04:24:09;9.25;;;6.57;;
7989;SDS011;4040;42.848;23.034;2022-07-23T04:29:57;7.35;;;6.07;;
7989;SDS011;4040;42.848;23.034;2022-07-23T04:35:46;9.65;;;7.03;;
7989;SDS011;4040;42.848;23.034;2022-07-23T04:41:36;11.30;;;6.80;;
7989;SDS011;4040;42.848;23.034;2022-07-23T04:47:24;11.65;;;6.50;;
7989;SDS011;4040;42.848;23.034;2022-07-23T04:53:13;6.93;;;5.72;;
7989;SDS011;4040;42.848;23.034;2022-07-23T04:59:03;8.38;;;5.90;;
7989;SDS011;4040;42.848;23.034;2022-07-23T05:04:52;7.68;;;5.78;;
7989;SDS011;4040;42.848;23.034;2022-07-23T05:10:41;13.57;;;6.60;;
7989;SDS011;4040;42.848;23.034;2022-07-23T05:20:53;8.52;;;6.00;;
7989;SDS011;4040;42.848;23.034;2022-07-23T05:26:41;6.43;;;5.72;;
7989;SDS011;4040;42.848;23.034;2022-07-23T05:32:31;10.68;;;6.72;;
7989;SDS011;4040;42.848;23.034;2022-07-23T05:38:21;9.88;;;6.57;;
7989;SDS011;4040;42.848;23.034;2022-07-23T05:44:10;12.57;;;6.18;;
7989;SDS011;4040;42.848;23.034;2022-07-23T05:49:58;11.35;;;5.68;;
7989;SDS011;4040;42.848;23.034;2022-07-23T05:55:48;9.07;;;5.70;;
7989;SDS011;4040;42.848;23.034;2022-07-23T06:01:37;10.68;;;5.75;;
7989;SDS011;4040;42.848;23.034;2022-07-23T06:07:25;9.75;;;5.72;;
7989;SDS011;4040;42.848;23.034;2022-07-23T06:13:16;6.03;;;5.43;;
7989;SDS011;4040;42.848;23.034;2022-07-23T06:23:27;7.50;;;6.38;;
7989;SDS011;4040;42.848;23.034;2022-07-23T06:29:18;10.35;;;6.55;;
7989;SDS011;4040;42.848;23.034;2022-07-23T06:35:07;8.93;;;5.93;;
7989;SDS011;4040;42.848;23.034;2022-07-23T06:40:56;6.47;;;5.85;;
7989;SDS011;4040;42.848;23.034;2022-07-23T06:46:46;10.15;;;6.28;;
7989;SDS011;4040;42.848;23.034;2022-07-23T06:52:34;9.23;;;5.60;;
7989;SDS011;4040;42.848;23.034;2022-07-23T06:58:23;9.75;;;5.25;;
7989;SDS011;4040;42.848;23.034;2022-07-23T07:04:14;6.55;;;5.55;;
7989;SDS011;4040;42.848;23.034;2022-07-23T07:10:02;8.82;;;5.60;;
7989;SDS011;4040;42.848;23.034;2022-07-23T07:15:52;9.65;;;6.20;;
7989;SDS011;4040;42.848;23.034;2022-07-23T07:26:04;8.02;;;5.65;;
7989;SDS011;4040;42.848;23.034;2022-07-23T07:31:53;9.07;;;5.28;;
7989;SDS011;4040;42.848;23.034;2022-07-23T07:37:42;8.55;;;5.57;;
7989;SDS011;4040;42.848;23.034;2022-07-23T07:43:32;8.48;;;6.03;;
7989;SDS011;4040;42.848;23.034;2022-07-23T07:49:21;6.35;;;4.50;;
7989;SDS011;4040;42.848;23.034;2022-07-23T07:55:10;8.85;;;4.95;;
7989;SDS011;4040;42.848;23.034;2022-07-23T08:01:01;7.63;;;4.80;;
7989;SDS011;4040;42.848;23.034;2022-07-23T08:06:49;9.73;;;5.65;;
7989;SDS011;4040;42.848;23.034;2022-07-23T08:12:38;5.93;;;5.30;;
7989;SDS011;4040;42.848;23.034;2022-07-23T08:18:33;8.18;;;5.82;;
7989;SDS011;4040;42.848;23.034;2022-07-23T08:28:44;8.45;;;5.70;;
7989;SDS011;4040;42.848;23.034;2022-07-23T08:34:34;7.97;;;5.03;;
7989;SDS011;4040;42.848;23.034;2022-07-23T08:40:23;10.57;;;4.90;;
7989;SDS011;4040;42.848;23.034;2022-07-23T08:46:14;6.65;;;5.20;;
7989;SDS011;4040;42.848;23.034;2022-07-23T08:52:08;9.27;;;5.03;;
7989;SDS011;4040;42.848;23.034;2022-07-23T08:57:57;9.52;;;5.13;;
7989;SDS011;4040;42.848;23.034;2022-07-23T09:03:46;5.63;;;5.03;;
7989;SDS011;4040;42.848;23.034;2022-07-23T09:09:36;5.75;;;5.25;;
7989;SDS011;4040;42.848;23.034;2022-07-23T09:15:25;8.50;;;4.90;;
7989;SDS011;4040;42.848;23.034;2022-07-23T09:21:18;7.88;;;4.82;;
7989;SDS011;4040;42.848;23.034;2022-07-23T09:23:48;10.23;;;6.40;;
7989;SDS011;4040;42.848;23.034;2022-07-23T09:29:54;8.20;;;5.20;;
7989;SDS011;4040;42.848;23.034;2022-07-23T09:35:45;11.77;;;5.07;;
7989;SDS011;4040;42.848;23.034;2022-07-23T09:41:36;8.95;;;4.18;;
7989;SDS011;4040;42.848;23.034;2022-07-23T09:47:28;8.00;;;4.72;;
7989;SDS011;4040;42.848;23.034;2022-07-23T09:53:23;8.20;;;4.22;;
7989;SDS011;4040;42.848;23.034;2022-07-23T09:59:13;7.43;;;4.35;;
7989;SDS011;4040;42.848;23.034;2022-07-23T10:05:06;8.77;;;4.60;;
7989;SDS011;4040;42.848;23.034;2022-07-23T10:10:55;7.22;;;4.13;;
7989;SDS011;4040;42.848;23.034;2022-07-23T10:16:45;8.88;;;4.63;;
7989;SDS011;4040;42.848;23.034;2022-07-23T10:22:37;9.48;;;4.32;;
7989;SDS011;4040;42.848;23.034;2022-07-23T10:28:38;10.10;;;4.40;;
7989;SDS011;4040;42.848;23.034;2022-07-23T10:34:40;5.20;;;4.05;;
7989;SDS011;4040;42.848;23.034;2022-07-23T10:40:57;8.23;;;4.43;;
7989;SDS011;4040;42.848;23.034;2022-07-23T10:46:54;8.95;;;4.38;;
7989;SDS011;4040;42.848;23.034;2022-07-23T10:59:07;7.22;;;4.05;;
7989;SDS011;4040;42.848;23.034;2022-07-23T11:04:59;7.60;;;4.43;;
7989;SDS011;4040;42.848;23.034;2022-07-23T11:10:50;5.95;;;4.25;;
7989;SDS011;4040;42.848;23.034;2022-07-23T11:16:47;10.85;;;3.92;;
7989;SDS011;4040;42.848;23.034;2022-07-23T11:22:36;8.43;;;4.05;;
7989;SDS011;4040;42.848;23.034;2022-07-23T11:28:24;9.10;;;3.95;;
7989;SDS011;4040;42.848;23.034;2022-07-23T11:34:31;10.73;;;4.70;;
7989;SDS011;4040;42.848;23.034;2022-07-23T11:40:20;11.57;;;4.63;;
7989;SDS011;4040;42.848;23.034;2022-07-23T11:46:09;8.88;;;3.47;;
7989;SDS011;4040;42.848;23.034;2022-07-23T11:52:06;7.90;;;4.10;;
7989;SDS011;4040;42.848;23.034;2022-07-23T11:57:56;8.45;;;4.05;;
7989;SDS011;4040;42.848;23.034;2022-07-23T12:03:49;14.43;;;4.60;;
7989;SDS011;4040;42.848;23.034;2022-07-23T12:09:40;10.20;;;4.18;;
7989;SDS011;4040;42.848;23.034;2022-07-23T12:15:33;6.28;;;3.63;;
7989;SDS011;4040;42.848;23.034;2022-07-23T12:21:24;11.85;;;4.47;;
7989;SDS011;4040;42.848;23.034;2022-07-23T12:31:36;10.02;;;4.35;;
7989;SDS011;4040;42.848;23.034;2022-07-23T12:37:27;11.73;;;4.00;;
7989;SDS011;4040;42.848;23.034;2022-07-23T12:43:20;4.40;;;3.13;;
7989;SDS011;4040;42.848;23.034;2022-07-23T12:49:11;6.20;;;3.53;;
7989;SDS011;4040;42.848;23.034;2022-07-23T12:55:26;6.13;;;3.55;;
7989;SDS011;4040;42.848;23.034;2022-07-23T13:01:22;8.20;;;4.38;;
7989;SDS011;4040;42.848;23.034;2022-07-23T13:07:13;9.65;;;3.72;;
7989;SDS011;4040;42.848;23.034;2022-07-23T13:13:02;7.63;;;3.83;;
7989;SDS011;4040;42.848;23.034;2022-07-23T13:18:55;9.75;;;4.22;;
7989;SDS011;4040;42.848;23.034;2022-07-23T13:24:46;9.23;;;4.03;;
7989;SDS011;4040;42.848;23.034;2022-07-23T13:34:57;10.80;;;4.40;;
7989;SDS011;4040;42.848;23.034;2022-07-23T13:40:48;10.02;;;4.57;;
7989;SDS011;4040;42.848;23.034;2022-07-23T13:46:38;9.15;;;4.03;;
7989;SDS011;4040;42.848;23.034;2022-07-23T13:52:26;7.93;;;4.05;;
7989;SDS011;4040;42.848;23.034;2022-07-23T13:58:17;9.32;;;4.20;;
7989;SDS011;4040;42.848;23.034;2022-07-23T14:04:06;7.57;;;4.07;;
7989;SDS011;4040;42.848;23.034;2022-07-23T14:09:54;8.45;;;4.45;;
7989;SDS011;4040;42.848;23.034;2022-07-23T14:15:44;10.25;;;5.07;;
7989;SDS011;4040;42.848;23.034;2022-07-23T14:21:33;7.35;;;4.07;;
7989;SDS011;4040;42.848;23.034;2022-07-23T14:27:22;8.35;;;4.00;;
7989;SDS011;4040;42.848;23.034;2022-07-23T14:37:34;9.20;;;4.05;;
7989;SDS011;4040;42.848;23.034;2022-07-23T14:43:22;7.20;;;3.97;;
7989;SDS011;4040;42.848;23.034;2022-07-23T14:49:11;14.15;;;4.18;;
7989;SDS011;4040;42.848;23.034;2022-07-23T14:55:01;7.63;;;3.75;;
7989;SDS011;4040;42.848;23.034;2022-07-23T15:00:49;12.00;;;4.47;;
7989;SDS011;4040;42.848;23.034;2022-07-23T15:06:39;7.80;;;3.70;;
7989;SDS011;4040;42.848;23.034;2022-07-23T15:12:29;10.50;;;4.20;;
7989;SDS011;4040;42.848;23.034;2022-07-23T15:18:18;9.38;;;4.03;;
7989;SDS011;4040;42.848;23.034;2022-07-23T15:24:07;8.35;;;4.15;;
7989;SDS011;4040;42.848;23.034;2022-07-23T15:29:58;8.15;;;3.90;;
7989;SDS011;4040;42.848;23.034;2022-07-23T15:40:08;10.80;;;4.70;;
7989;SDS011;4040;42.848;23.034;2022-07-23T15:45:59;10.15;;;4.20;;
7989;SDS011;4040;42.848;23.034;2022-07-23T15:51:47;8.38;;;4.22;;
7989;SDS011;4040;42.848;23.034;2022-07-23T15:57:36;8.65;;;3.97;;
7989;SDS011;4040;42.848;23.034;2022-07-23T16:03:26;11.98;;;4.93;;
7989;SDS011;4040;42.848;23.034;2022-07-23T16:09:15;9.15;;;4.72;;
7989;SDS011;4040;42.848;23.034;2022-07-23T16:15:04;7.82;;;4.40;;
7989;SDS011;4040;42.848;23.034;2022-07-23T16:20:55;11.65;;;4.57;;
7989;SDS011;4040;42.848;23.034;2022-07-23T16:26:43;8.30;;;4.40;;
7989;SDS011;4040;42.848;23.034;2022-07-23T16:32:33;6.90;;;4.00;;
7989;SDS011;4040;42.848;23.034;2022-07-23T16:42:45;7.75;;;4.40;;
7989;SDS011;4040;42.848;23.034;2022-07-23T16:48:34;9.10;;;4.93;;
7989;SDS011;4040;42.848;23.034;2022-07-23T16:54:22;9.00;;;4.25;;
7989;SDS011;4040;42.848;23.034;2022-07-23T17:00:13;8.15;;;4.18;;
7989;SDS011;4040;42.848;23.034;2022-07-23T17:06:02;9.25;;;4.35;;
7989;SDS011;4040;42.848;23.034;2022-07-23T17:11:51;9.32;;;4.10;;
7989;SDS011;4040;42.848;23.034;2022-07-23T17:17:41;12.73;;;4.38;;
7989;SDS011;4040;42.848;23.034;2022-07-23T17:23:30;23.52;;;6.20;;
7989;SDS011;4040;42.848;23.034;2022-07-23T17:29:19;15.18;;;5.50;;
7989;SDS011;4040;42.848;23.034;2022-07-23T17:35:09;15.45;;;5.07;;
7989;SDS011;4040;42.848;23.034;2022-07-23T17:45:20;13.45;;;5.45;;
7989;SDS011;4040;42.848;23.034;2022-07-23T17:51:10;20.83;;;6.47;;
7989;SDS011;4040;42.848;23.034;2022-07-23T17:56:59;11.15;;;5.38;;
7989;SDS011;4040;42.848;23.034;2022-07-23T18:02:48;13.98;;;5.38;;
7989;SDS011;4040;42.848;23.034;2022-07-23T18:08:38;10.55;;;5.00;;
7989;SDS011;4040;42.848;23.034;2022-07-23T18:14:27;19.95;;;5.00;;
7989;SDS011;4040;42.848;23.034;2022-07-23T18:20:16;16.38;;;5.25;;
7989;SDS011;4040;42.848;23.034;2022-07-23T18:26:07;15.90;;;4.97;;
7989;SDS011;4040;42.848;23.034;2022-07-23T18:31:55;15.38;;;5.75;;
7989;SDS011;4040;42.848;23.034;2022-07-23T18:37:44;16.60;;;5.82;;
7989;SDS011;4040;42.848;23.034;2022-07-23T18:47:56;16.58;;;5.88;;
7989;SDS011;4040;42.848;23.034;2022-07-23T18:53:45;16.67;;;5.93;;
7989;SDS011;4040;42.848;23.034;2022-07-23T18:59:34;11.77;;;5.53;;
7989;SDS011;4040;42.848;23.034;2022-07-23T19:05:24;12.32;;;5.13;;
7989;SDS011;4040;42.848;23.034;2022-07-23T19:11:13;13.82;;;6.75;;
7989;SDS011;4040;42.848;23.034;2022-07-23T19:17:02;13.07;;;5.47;;
7989;SDS011;4040;42.848;23.034;2022-07-23T19:22:52;14.55;;;8.85;;
7989;SDS011;4040;42.848;23.034;2022-07-23T19:28:41;7.75;;;5.40;;
7989;SDS011;4040;42.848;23.034;2022-07-23T19:34:30;9.48;;;5.55;;
7989;SDS011;4040;42.848;23.034;2022-07-23T19:40:20;7.03;;;4.80;;
7989;SDS011;4040;42.848;23.034;2022-07-23T19:50:31;10.88;;;5.00;;
7989;SDS011;4040;42.848;23.034;2022-07-23T19:56:21;11.48;;;5.00;;
7989;SDS011;4040;42.848;23.034;2022-07-23T20:02:10;10.77;;;5.13;;
7989;SDS011;4040;42.848;23.034;2022-07-23T20:07:59;13.00;;;4.95;;
7989;SDS011;4040;42.848;23.034;2022-07-23T20:13:50;10.15;;;5.18;;
7989;SDS011;4040;42.848;23.034;2022-07-23T20:19:38;12.50;;;5.15;;
7989;SDS011;4040;42.848;23.034;2022-07-23T20:25:27;7.95;;;4.85;;
7989;SDS011;4040;42.848;23.034;2022-07-23T20:31:17;13.82;;;5.88;;
7989;SDS011;4040;42.848;23.034;2022-07-23T20:37:06;9.75;;;5.22;;
7989;SDS011;4040;42.848;23.034;2022-07-23T20:42:55;11.60;;;4.93;;
7989;SDS011;4040;42.848;23.034;2022-07-23T20:53:07;10.05;;;5.20;;
7989;SDS011;4040;42.848;23.034;2022-07-23T20:58:55;8.85;;;5.07;;
7989;SDS011;4040;42.848;23.034;2022-07-23T21:04:44;11.52;;;4.90;;
7989;SDS011;4040;42.848;23.034;2022-07-23T21:10:34;12.43;;;5.13;;
7989;SDS011;4040;42.848;23.034;2022-07-23T21:16:43;9.55;;;5.07;;
7989;SDS011;4040;42.848;23.034;2022-07-23T21:22:32;13.88;;;5.18;;
7989;SDS011;4040;42.848;23.034;2022-07-23T21:28:22;11.13;;;5.20;;
7989;SDS011;4040;42.848;23.034;2022-07-23T21:34:11;10.45;;;5.70;;
7989;SDS011;4040;42.848;23.034;2022-07-23T21:39:59;8.30;;;5.75;;
7989;SDS011;4040;42.848;23.034;2022-07-23T21:45:50;12.27;;;5.60;;
7989;SDS011;4040;42.848;23.034;2022-07-23T21:56:00;8.27;;;4.38;;
7989;SDS011;4040;42.848;23.034;2022-07-23T22:08:32;10.00;;;4.57;;
7989;SDS011;4040;42.848;23.034;2022-07-23T22:14:21;7.60;;;5.25;;
7989;SDS011;4040;42.848;23.034;2022-07-23T22:20:11;9.13;;;4.97;;
7989;SDS011;4040;42.848;23.034;2022-07-23T22:26:01;9.65;;;5.35;;
7989;SDS011;4040;42.848;23.034;2022-07-23T22:31:50;8.95;;;4.93;;
7989;SDS011;4040;42.848;23.034;2022-07-23T22:37:39;8.75;;;5.30;;
7989;SDS011;4040;42.848;23.034;2022-07-23T22:43:29;13.00;;;5.80;;
7989;SDS011;4040;42.848;23.034;2022-07-23T22:49:17;10.57;;;5.22;;
7989;SDS011;4040;42.848;23.034;2022-07-23T22:55:06;8.15;;;5.70;;
7989;SDS011;4040;42.848;23.034;2022-07-23T23:00:58;9.13;;;5.13;;
7989;SDS011;4040;42.848;23.034;2022-07-23T23:11:08;7.32;;;5.68;;
7989;SDS011;4040;42.848;23.034;2022-07-23T23:16:58;11.43;;;5.20;;
7989;SDS011;4040;42.848;23.034;2022-07-23T23:22:47;10.50;;;4.93;;
7989;SDS011;4040;42.848;23.034;2022-07-23T23:28:36;13.57;;;5.57;;
7989;SDS011;4040;42.848;23.034;2022-07-23T23:34:26;9.55;;;5.75;;
7989;SDS011;4040;42.848;23.034;2022-07-23T23:40:15;11.52;;;6.20;;
7989;SDS011;4040;42.848;23.034;2022-07-23T23:46:04;9.93;;;5.55;;
7989;SDS011;4040;42.848;23.034;2022-07-23T23:51:54;9.82;;;6.07;;
7989;SDS011;4040;42.848;23.034;2022-07-23T23:57:42;11.55;;;6.03;;
